sensor_id;sensor_type;location;lat;lon;timestamp;pressure;altitude;pressure_sealevel;temperature;humidity
8286;BME280;4181;43.416;24.598;2023-05-20T00:00:53;99962.56;;;15.45;100.00
8286;BME280;4181;43.416;24.598;2023-05-20T00:03:19;99968.66;;;15.42;100.00
8286;BME280;4181;43.416;24.598;2023-05-20T00:05:45;99975.78;;;15.43;100.00
8286;BME280;4181;43.416;24.598;2023-05-20T00:08:11;99982.25;;;15.57;100.00
8286;BME280;4181;43.416;24.598;2023-05-20T00:10:36;99988.84;;;15.61;100.00
8286;BME280;4181;43.416;24.598;2023-05-20T00:13:02;99991.25;;;15.68;100.00
8286;BME280;4181;43.416;24.598;2023-05-20T00:15:28;99996.38;;;15.79;100.00
8286;BME280;4181;43.416;24.598;2023-05-20T00:17:54;99986.97;;;15.85;100.00
8286;BME280;4181;43.416;24.598;2023-05-20T00:20:21;99993.53;;;15.89;100.00
8286;BME280;4181;43.416;24.598;2023-05-20T00:22:46;99998.50;;;15.87;100.00
8286;BME280;4181;43.416;24.598;2023-05-20T00:25:12;100006.78;;;15.82;100.00
8286;BME280;4181;43.416;24.598;2023-05-20T00:27:40;100017.28;;;15.80;100.00
8286;BME280;4181;43.416;24.598;2023-05-20T00:30:06;100040.88;;;15.86;100.00
8286;BME280;4181;43.416;24.598;2023-05-20T00:32:32;100074.69;;;15.53;100.00
8286;BME280;4181;43.416;24.598;2023-05-20T00:34:59;100072.84;;;15.39;100.00
8286;BME280;4181;43.416;24.598;2023-05-20T00:37:26;100070.06;;;15.49;100.00
8286;BME280;4181;43.416;24.598;2023-05-20T00:39:52;100064.75;;;15.57;100.00
8286;BME280;4181;43.416;24.598;2023-05-20T00:42:23;100061.41;;;15.65;100.00
8286;BME280;4181;43.416;24.598;2023-05-20T00:44:50;100084.38;;;15.41;100.00
8286;BME280;4181;43.416;24.598;2023-05-20T00:47:16;100105.41;;;15.11;100.00
8286;BME280;4181;43.416;24.598;2023-05-20T00:49:43;100103.56;;;14.92;100.00
8286;BME280;4181;43.416;24.598;2023-05-20T00:52:09;100090.13;;;14.80;100.00
8286;BME280;4181;43.416;24.598;2023-05-20T00:54:35;100087.44;;;14.70;100.00
8286;BME280;4181;43.416;24.598;2023-05-20T00:57:02;100065.25;;;14.57;100.00
8286;BME280;4181;43.416;24.598;2023-05-20T00:59:30;100025.31;;;14.79;100.00
8286;BME280;4181;43.416;24.598;2023-05-20T01:01:56;100016.72;;;14.96;100.00
8286;BME280;4181;43.416;24.598;2023-05-20T01:04:21;100007.66;;;14.95;100.00
8286;BME280;4181;43.416;24.598;2023-05-20T01:06:47;99995.56;;;15.01;100.00
8286;BME280;4181;43.416;24.598;2023-05-20T01:09:13;99997.16;;;15.07;100.00
8286;BME280;4181;43.416;24.598;2023-05-20T01:11:58;99992.50;;;15.03;100.00
8286;BME280;4181;43.416;24.598;2023-05-20T01:14:29;99975.91;;;15.23;100.00
8286;BME280;4181;43.416;24.598;2023-05-20T01:16:57;99966.66;;;15.04;100.00
8286;BME280;4181;43.416;24.598;2023-05-20T01:19:33;99972.19;;;14.99;100.00
8286;BME280;4181;43.416;24.598;2023-05-20T01:22:02;99953.94;;;15.18;100.00
8286;BME280;4181;43.416;24.598;2023-05-20T01:24:29;99959.66;;;15.27;100.00
8286;BME280;4181;43.416;24.598;2023-05-20T01:26:55;99994.47;;;14.97;100.00
8286;BME280;4181;43.416;24.598;2023-05-20T01:29:23;100015.41;;;14.88;100.00
8286;BME280;4181;43.416;24.598;2023-05-20T01:31:50;100022.34;;;14.71;100.00
8286;BME280;4181;43.416;24.598;2023-05-20T01:34:16;100018.50;;;14.72;100.00
8286;BME280;4181;43.416;24.598;2023-05-20T01:36:44;100035.56;;;14.59;100.00
8286;BME280;4181;43.416;24.598;2023-05-20T01:39:10;100013.31;;;14.65;100.00
8286;BME280;4181;43.416;24.598;2023-05-20T01:41:36;100013.59;;;14.59;100.00
8286;BME280;4181;43.416;24.598;2023-05-20T01:44:02;100010.38;;;14.47;100.00
8286;BME280;4181;43.416;24.598;2023-05-20T01:46:32;100008.47;;;14.32;100.00
8286;BME280;4181;43.416;24.598;2023-05-20T01:48:57;100000.78;;;14.34;100.00
8286;BME280;4181;43.416;24.598;2023-05-20T01:51:22;99996.06;;;14.55;100.00
8286;BME280;4181;43.416;24.598;2023-05-20T01:53:48;100009.16;;;14.73;100.00
8286;BME280;4181;43.416;24.598;2023-05-20T01:56:14;100015.44;;;14.83;100.00
8286;BME280;4181;43.416;24.598;2023-05-20T01:58:39;100035.44;;;14.89;100.00
8286;BME280;4181;43.416;24.598;2023-05-20T02:01:04;100050.28;;;14.88;100.00
8286;BME280;4181;43.416;24.598;2023-05-20T02:03:30;100081.88;;;14.80;100.00
8286;BME280;4181;43.416;24.598;2023-05-20T02:05:55;100092.66;;;14.67;100.00
8286;BME280;4181;43.416;24.598;2023-05-20T02:08:21;100088.81;;;14.68;100.00
8286;BME280;4181;43.416;24.598;2023-05-20T02:10:47;100083.88;;;14.65;100.00
8286;BME280;4181;43.416;24.598;2023-05-20T02:13:13;100085.81;;;14.64;100.00
8286;BME280;4181;43.416;24.598;2023-05-20T02:15:42;100072.91;;;14.60;100.00
8286;BME280;4181;43.416;24.598;2023-05-20T02:18:07;100072.94;;;14.45;100.00
8286;BME280;4181;43.416;24.598;2023-05-20T02:20:36;100060.28;;;14.54;100.00
8286;BME280;4181;43.416;24.598;2023-05-20T02:23:01;100069.63;;;14.53;100.00
8286;BME280;4181;43.416;24.598;2023-05-20T02:25:30;100068.28;;;14.50;100.00
8286;BME280;4181;43.416;24.598;2023-05-20T02:27:55;100068.00;;;14.52;100.00
8286;BME280;4181;43.416;24.598;2023-05-20T02:30:21;100053.97;;;14.63;100.00
8286;BME280;4181;43.416;24.598;2023-05-20T02:32:46;100075.13;;;14.53;100.00
8286;BME280;4181;43.416;24.598;2023-05-20T02:35:12;100089.44;;;14.20;100.00
8286;BME280;4181;43.416;24.598;2023-05-20T02:37:37;100075.72;;;14.20;100.00
8286;BME280;4181;43.416;24.598;2023-05-20T02:40:04;100073.81;;;14.05;100.00
8286;BME280;4181;43.416;24.598;2023-05-20T02:42:31;100064.19;;;13.97;100.00
8286;BME280;4181;43.416;24.598;2023-05-20T02:44:56;100037.88;;;13.86;100.00
8286;BME280;4181;43.416;24.598;2023-05-20T02:47:24;100021.94;;;14.14;100.00
8286;BME280;4181;43.416;24.598;2023-05-20T02:49:49;100026.31;;;14.30;100.00
8286;BME280;4181;43.416;24.598;2023-05-20T02:52:15;100023.59;;;14.30;100.00
8286;BME280;4181;43.416;24.598;2023-05-20T02:54:40;100029.03;;;14.25;100.00
8286;BME280;4181;43.416;24.598;2023-05-20T02:57:06;100030.13;;;14.34;100.00
8286;BME280;4181;43.416;24.598;2023-05-20T02:59:31;100043.88;;;14.34;100.00
8286;BME280;4181;43.416;24.598;2023-05-20T03:01:56;100048.84;;;14.27;100.00
8286;BME280;4181;43.416;24.598;2023-05-20T03:04:22;100038.34;;;14.24;100.00
8286;BME280;4181;43.416;24.598;2023-05-20T03:06:49;100037.53;;;14.43;100.00
8286;BME280;4181;43.416;24.598;2023-05-20T03:09:16;100041.63;;;14.51;100.00
8286;BME280;4181;43.416;24.598;2023-05-20T03:11:44;100048.75;;;14.57;100.00
8286;BME280;4181;43.416;24.598;2023-05-20T03:14:09;100060.81;;;14.61;100.00
8286;BME280;4181;43.416;24.598;2023-05-20T03:16:35;100067.72;;;14.58;100.00
8286;BME280;4181;43.416;24.598;2023-05-20T03:19:01;100083.88;;;14.70;100.00
8286;BME280;4181;43.416;24.598;2023-05-20T03:21:26;100082.72;;;14.81;100.00
8286;BME280;4181;43.416;24.598;2023-05-20T03:23:52;100081.34;;;14.83;100.00
8286;BME280;4181;43.416;24.598;2023-05-20T03:26:17;100092.56;;;14.97;100.00
8286;BME280;4181;43.416;24.598;2023-05-20T03:28:43;100095.78;;;15.09;100.00
8286;BME280;4181;43.416;24.598;2023-05-20T03:31:09;100119.13;;;15.16;100.00
8286;BME280;4181;43.416;24.598;2023-05-20T03:33:35;100125.44;;;15.22;100.00
8286;BME280;4181;43.416;24.598;2023-05-20T03:36:00;100149.63;;;15.20;100.00
8286;BME280;4181;43.416;24.598;2023-05-20T03:38:26;100168.00;;;15.24;100.00
8286;BME280;4181;43.416;24.598;2023-05-20T03:40:51;100179.28;;;15.28;100.00
8286;BME280;4181;43.416;24.598;2023-05-20T03:43:17;100185.00;;;15.37;100.00
8286;BME280;4181;43.416;24.598;2023-05-20T03:45:42;100196.25;;;15.55;100.00
8286;BME280;4181;43.416;24.598;2023-05-20T03:48:07;100205.25;;;15.66;100.00
8286;BME280;4181;43.416;24.598;2023-05-20T03:50:33;100194.47;;;15.74;100.00
8286;BME280;4181;43.416;24.598;2023-05-20T03:52:58;100190.88;;;15.84;100.00
8286;BME280;4181;43.416;24.598;2023-05-20T03:55:24;100199.50;;;16.06;100.00
8286;BME280;4181;43.416;24.598;2023-05-20T03:57:50;100195.84;;;16.20;100.00
8286;BME280;4181;43.416;24.598;2023-05-20T04:00:15;100210.16;;;16.17;100.00
8286;BME280;4181;43.416;24.598;2023-05-20T04:02:41;100207.88;;;16.29;100.00
8286;BME280;4181;43.416;24.598;2023-05-20T04:05:07;100197.06;;;16.38;100.00
8286;BME280;4181;43.416;24.598;2023-05-20T04:07:34;100191.38;;;16.63;100.00
8286;BME280;4181;43.416;24.598;2023-05-20T04:10:00;100200.56;;;16.82;100.00
8286;BME280;4181;43.416;24.598;2023-05-20T04:12:25;100236.16;;;16.79;100.00
8286;BME280;4181;43.416;24.598;2023-05-20T04:14:59;100231.16;;;16.81;100.00
8286;BME280;4181;43.416;24.598;2023-05-20T04:17:28;100215.06;;;16.93;100.00
8286;BME280;4181;43.416;24.598;2023-05-20T04:19:56;100214.94;;;17.03;100.00
8286;BME280;4181;43.416;24.598;2023-05-20T04:22:24;100201.53;;;17.20;100.00
8286;BME280;4181;43.416;24.598;2023-05-20T04:24:50;100194.78;;;17.31;100.00
8286;BME280;4181;43.416;24.598;2023-05-20T04:27:15;100190.25;;;17.40;100.00
8286;BME280;4181;43.416;24.598;2023-05-20T04:29:41;100188.56;;;17.44;100.00
8286;BME280;4181;43.416;24.598;2023-05-20T04:32:12;100173.56;;;17.55;100.00
8286;BME280;4181;43.416;24.598;2023-05-20T04:34:37;100168.34;;;17.72;100.00
8286;BME280;4181;43.416;24.598;2023-05-20T04:37:03;100153.13;;;17.93;100.00
8286;BME280;4181;43.416;24.598;2023-05-20T04:39:28;100147.91;;;18.10;100.00
8286;BME280;4181;43.416;24.598;2023-05-20T04:41:55;100146.34;;;18.36;100.00
8286;BME280;4181;43.416;24.598;2023-05-20T04:44:20;100153.97;;;18.44;100.00
8286;BME280;4181;43.416;24.598;2023-05-20T04:46:48;100174.28;;;18.53;100.00
8286;BME280;4181;43.416;24.598;2023-05-20T04:49:14;100178.09;;;18.57;100.00
8286;BME280;4181;43.416;24.598;2023-05-20T04:51:39;100187.56;;;18.51;100.00
8286;BME280;4181;43.416;24.598;2023-05-20T04:54:06;100194.84;;;18.47;100.00
8286;BME280;4181;43.416;24.598;2023-05-20T04:56:31;100205.81;;;18.52;100.00
8286;BME280;4181;43.416;24.598;2023-05-20T04:58:57;100205.34;;;18.64;100.00
8286;BME280;4181;43.416;24.598;2023-05-20T05:01:23;100212.44;;;18.83;100.00
8286;BME280;4181;43.416;24.598;2023-05-20T05:03:48;100231.09;;;18.91;100.00
8286;BME280;4181;43.416;24.598;2023-05-20T05:06:14;100249.16;;;19.16;100.00
8286;BME280;4181;43.416;24.598;2023-05-20T05:08:39;100247.56;;;19.29;100.00
8286;BME280;4181;43.416;24.598;2023-05-20T05:11:05;100254.66;;;19.48;100.00
8286;BME280;4181;43.416;24.598;2023-05-20T05:13:31;100265.63;;;19.67;100.00
8286;BME280;4181;43.416;24.598;2023-05-20T05:15:57;100274.88;;;19.76;100.00
8286;BME280;4181;43.416;24.598;2023-05-20T05:18:23;100279.59;;;19.89;100.00
8286;BME280;4181;43.416;24.598;2023-05-20T05:20:49;100283.28;;;19.84;100.00
8286;BME280;4181;43.416;24.598;2023-05-20T05:23:14;100279.47;;;20.07;100.00
8286;BME280;4181;43.416;24.598;2023-05-20T05:25:40;100274.94;;;20.25;100.00
8286;BME280;4181;43.416;24.598;2023-05-20T05:28:05;100291.72;;;20.42;100.00
8286;BME280;4181;43.416;24.598;2023-05-20T05:30:31;100280.59;;;20.56;100.00
8286;BME280;4181;43.416;24.598;2023-05-20T05:32:56;100282.28;;;20.65;100.00
8286;BME280;4181;43.416;24.598;2023-05-20T05:35:22;100276.38;;;20.80;100.00
8286;BME280;4181;43.416;24.598;2023-05-20T05:37:47;100282.03;;;20.75;100.00
8286;BME280;4181;43.416;24.598;2023-05-20T05:40:13;100296.38;;;20.91;100.00
8286;BME280;4181;43.416;24.598;2023-05-20T05:42:38;100294.03;;;21.06;100.00
8286;BME280;4181;43.416;24.598;2023-05-20T05:45:04;100274.41;;;21.25;100.00
8286;BME280;4181;43.416;24.598;2023-05-20T05:47:30;100274.69;;;21.46;100.00
8286;BME280;4181;43.416;24.598;2023-05-20T05:49:57;100275.91;;;21.70;100.00
8286;BME280;4181;43.416;24.598;2023-05-20T05:52:24;100290.47;;;21.76;100.00
8286;BME280;4181;43.416;24.598;2023-05-20T05:54:49;100281.88;;;21.86;100.00
8286;BME280;4181;43.416;24.598;2023-05-20T05:57:15;100275.22;;;22.04;100.00
8286;BME280;4181;43.416;24.598;2023-05-20T05:59:40;100295.22;;;22.23;100.00
8286;BME280;4181;43.416;24.598;2023-05-20T06:02:05;100317.78;;;22.30;100.00
8286;BME280;4181;43.416;24.598;2023-05-20T06:04:31;100328.47;;;22.36;100.00
8286;BME280;4181;43.416;24.598;2023-05-20T06:06:57;100331.28;;;22.62;100.00
8286;BME280;4181;43.416;24.598;2023-05-20T06:09:23;100347.31;;;22.65;100.00
8286;BME280;4181;43.416;24.598;2023-05-20T06:11:48;100344.38;;;22.70;100.00
8286;BME280;4181;43.416;24.598;2023-05-20T06:14:14;100346.50;;;22.82;100.00
8286;BME280;4181;43.416;24.598;2023-05-20T06:16:39;100343.06;;;23.02;100.00
8286;BME280;4181;43.416;24.598;2023-05-20T06:19:04;100329.28;;;23.22;100.00
8286;BME280;4181;43.416;24.598;2023-05-20T06:21:31;100329.28;;;23.39;100.00
8286;BME280;4181;43.416;24.598;2023-05-20T06:23:57;100337.13;;;23.46;100.00
8286;BME280;4181;43.416;24.598;2023-05-20T06:26:22;100337.78;;;23.51;100.00
8286;BME280;4181;43.416;24.598;2023-05-20T06:28:47;100321.81;;;23.69;100.00
8286;BME280;4181;43.416;24.598;2023-05-20T06:31:13;100322.28;;;23.79;100.00
8286;BME280;4181;43.416;24.598;2023-05-20T06:33:38;100322.03;;;24.02;100.00
8286;BME280;4181;43.416;24.598;2023-05-20T06:36:04;100324.69;;;23.90;100.00
8286;BME280;4181;43.416;24.598;2023-05-20T06:38:29;100333.72;;;23.87;100.00
8286;BME280;4181;43.416;24.598;2023-05-20T06:40:55;100325.91;;;24.09;100.00
8286;BME280;4181;43.416;24.598;2023-05-20T06:43:20;100326.72;;;24.39;100.00
8286;BME280;4181;43.416;24.598;2023-05-20T06:45:46;100336.59;;;24.36;100.00
8286;BME280;4181;43.416;24.598;2023-05-20T06:48:11;100336.16;;;24.55;100.00
8286;BME280;4181;43.416;24.598;2023-05-20T06:50:37;100350.66;;;24.69;100.00
8286;BME280;4181;43.416;24.598;2023-05-20T06:53:02;100335.63;;;24.82;100.00
8286;BME280;4181;43.416;24.598;2023-05-20T06:55:29;100331.75;;;24.95;100.00
8286;BME280;4181;43.416;24.598;2023-05-20T06:57:54;100353.25;;;24.94;100.00
8286;BME280;4181;43.416;24.598;2023-05-20T07:00:20;100339.44;;;24.98;100.00
8286;BME280;4181;43.416;24.598;2023-05-20T07:02:45;100348.63;;;24.98;100.00
8286;BME280;4181;43.416;24.598;2023-05-20T07:05:11;100338.47;;;25.15;100.00
8286;BME280;4181;43.416;24.598;2023-05-20T07:07:37;100336.78;;;25.34;100.00
8286;BME280;4181;43.416;24.598;2023-05-20T07:10:04;100329.38;;;25.38;100.00
8286;BME280;4181;43.416;24.598;2023-05-20T07:12:32;100323.59;;;25.55;100.00
8286;BME280;4181;43.416;24.598;2023-05-20T07:14:58;100319.66;;;25.68;100.00
8286;BME280;4181;43.416;24.598;2023-05-20T07:17:24;100305.69;;;25.92;100.00
8286;BME280;4181;43.416;24.598;2023-05-20T07:19:50;100305.22;;;25.90;100.00
8286;BME280;4181;43.416;24.598;2023-05-20T07:22:15;100308.53;;;26.04;100.00
8286;BME280;4181;43.416;24.598;2023-05-20T07:24:41;100320.44;;;26.13;100.00
8286;BME280;4181;43.416;24.598;2023-05-20T07:27:07;100319.59;;;26.13;100.00
8286;BME280;4181;43.416;24.598;2023-05-20T07:29:33;100313.41;;;26.19;100.00
8286;BME280;4181;43.416;24.598;2023-05-20T07:31:59;100308.06;;;26.27;100.00
8286;BME280;4181;43.416;24.598;2023-05-20T07:34:25;100306.84;;;26.52;100.00
8286;BME280;4181;43.416;24.598;2023-05-20T07:36:50;100306.84;;;26.64;100.00
8286;BME280;4181;43.416;24.598;2023-05-20T07:39:15;100310.06;;;26.78;100.00
8286;BME280;4181;43.416;24.598;2023-05-20T07:41:41;100307.13;;;26.86;100.00
8286;BME280;4181;43.416;24.598;2023-05-20T07:44:07;100323.41;;;26.69;100.00
8286;BME280;4181;43.416;24.598;2023-05-20T07:46:36;100315.44;;;26.71;100.00
8286;BME280;4181;43.416;24.598;2023-05-20T07:49:06;100325.13;;;26.73;100.00
8286;BME280;4181;43.416;24.598;2023-05-20T07:51:31;100324.44;;;26.52;100.00
8286;BME280;4181;43.416;24.598;2023-05-20T07:53:57;100316.16;;;26.68;100.00
8286;BME280;4181;43.416;24.598;2023-05-20T07:56:22;100319.41;;;26.82;100.00
8286;BME280;4181;43.416;24.598;2023-05-20T07:58:56;100325.28;;;26.92;100.00
8286;BME280;4181;43.416;24.598;2023-05-20T08:01:23;100326.16;;;26.81;100.00
8286;BME280;4181;43.416;24.598;2023-05-20T08:03:48;100325.03;;;26.70;100.00
8286;BME280;4181;43.416;24.598;2023-05-20T08:06:14;100327.09;;;26.85;100.00
8286;BME280;4181;43.416;24.598;2023-05-20T08:08:40;100349.38;;;26.57;100.00
8286;BME280;4181;43.416;24.598;2023-05-20T08:11:06;100352.56;;;26.07;100.00
8286;BME280;4181;43.416;24.598;2023-05-20T08:13:31;100359.84;;;25.76;100.00
8286;BME280;4181;43.416;24.598;2023-05-20T08:15:57;100375.31;;;25.08;100.00
8286;BME280;4181;43.416;24.598;2023-05-20T08:18:22;100382.31;;;24.44;100.00
8286;BME280;4181;43.416;24.598;2023-05-20T08:20:49;100369.88;;;24.62;100.00
8286;BME280;4181;43.416;24.598;2023-05-20T08:23:15;100368.38;;;24.73;100.00
8286;BME280;4181;43.416;24.598;2023-05-20T08:25:40;100352.97;;;25.08;100.00
8286;BME280;4181;43.416;24.598;2023-05-20T08:28:06;100356.19;;;25.31;100.00
8286;BME280;4181;43.416;24.598;2023-05-20T08:30:32;100355.41;;;25.30;100.00
8286;BME280;4181;43.416;24.598;2023-05-20T08:32:58;100356.34;;;25.14;100.00
8286;BME280;4181;43.416;24.598;2023-05-20T08:35:24;100367.03;;;24.50;100.00
8286;BME280;4181;43.416;24.598;2023-05-20T08:37:50;100366.91;;;24.09;100.00
8286;BME280;4181;43.416;24.598;2023-05-20T08:40:18;100369.91;;;24.33;100.00
8286;BME280;4181;43.416;24.598;2023-05-20T08:42:44;100350.47;;;24.74;100.00
8286;BME280;4181;43.416;24.598;2023-05-20T08:45:10;100356.63;;;25.21;100.00
8286;BME280;4181;43.416;24.598;2023-05-20T08:47:40;100348.59;;;25.19;100.00
8286;BME280;4181;43.416;24.598;2023-05-20T08:50:10;100362.38;;;25.04;100.00
8286;BME280;4181;43.416;24.598;2023-05-20T08:52:39;100359.97;;;25.14;100.00
8286;BME280;4181;43.416;24.598;2023-05-20T08:55:08;100352.66;;;25.42;100.00
8286;BME280;4181;43.416;24.598;2023-05-20T08:57:37;100345.97;;;25.67;100.00
8286;BME280;4181;43.416;24.598;2023-05-20T09:00:02;100373.66;;;25.28;100.00
8286;BME280;4181;43.416;24.598;2023-05-20T09:02:36;100389.16;;;24.55;100.00
8286;BME280;4181;43.416;24.598;2023-05-20T09:05:03;100391.97;;;24.17;100.00
8286;BME280;4181;43.416;24.598;2023-05-20T09:07:30;100395.66;;;24.01;100.00
8286;BME280;4181;43.416;24.598;2023-05-20T09:09:56;100394.03;;;24.29;100.00
8286;BME280;4181;43.416;24.598;2023-05-20T09:12:22;100406.63;;;23.97;100.00
8286;BME280;4181;43.416;24.598;2023-05-20T09:14:47;100421.34;;;23.51;100.00
8286;BME280;4181;43.416;24.598;2023-05-20T09:17:13;100424.25;;;23.04;100.00
8286;BME280;4181;43.416;24.598;2023-05-20T09:19:38;100426.72;;;22.97;100.00
8286;BME280;4181;43.416;24.598;2023-05-20T09:22:04;100424.56;;;22.85;100.00
8286;BME280;4181;43.416;24.598;2023-05-20T09:24:30;100422.44;;;22.82;100.00
8286;BME280;4181;43.416;24.598;2023-05-20T09:26:55;100425.03;;;22.70;100.00
8286;BME280;4181;43.416;24.598;2023-05-20T09:29:23;100413.38;;;22.51;100.00
8286;BME280;4181;43.416;24.598;2023-05-20T09:31:49;100404.94;;;22.25;100.00
8286;BME280;4181;43.416;24.598;2023-05-20T09:34:19;100402.84;;;22.31;100.00
8286;BME280;4181;43.416;24.598;2023-05-20T09:36:48;100414.91;;;22.18;100.00
8286;BME280;4181;43.416;24.598;2023-05-20T09:39:23;100413.53;;;22.07;100.00
8286;BME280;4181;43.416;24.598;2023-05-20T09:42:06;100416.09;;;21.95;100.00
8286;BME280;4181;43.416;24.598;2023-05-20T09:44:35;100409.03;;;21.89;100.00
8286;BME280;4181;43.416;24.598;2023-05-20T09:47:01;100410.66;;;21.81;100.00
8286;BME280;4181;43.416;24.598;2023-05-20T09:49:28;100397.41;;;21.87;100.00
8286;BME280;4181;43.416;24.598;2023-05-20T09:51:55;100394.50;;;21.92;100.00
8286;BME280;4181;43.416;24.598;2023-05-20T09:54:22;100397.56;;;21.82;100.00
8286;BME280;4181;43.416;24.598;2023-05-20T09:56:49;100384.00;;;21.80;100.00
8286;BME280;4181;43.416;24.598;2023-05-20T09:59:15;100385.25;;;21.74;100.00
8286;BME280;4181;43.416;24.598;2023-05-20T10:01:41;100373.56;;;21.86;100.00
8286;BME280;4181;43.416;24.598;2023-05-20T10:04:09;100367.81;;;21.82;100.00
8286;BME280;4181;43.416;24.598;2023-05-20T10:07:12;100366.19;;;21.81;100.00
8286;BME280;4181;43.416;24.598;2023-05-20T10:15:37;100346.25;;;21.79;100.00
8286;BME280;4181;43.416;24.598;2023-05-20T10:20:51;100327.97;;;21.87;100.00
8286;BME280;4181;43.416;24.598;2023-05-20T10:23:23;100308.44;;;22.09;100.00
8286;BME280;4181;43.416;24.598;2023-05-20T10:25:52;100305.53;;;22.22;100.00
8286;BME280;4181;43.416;24.598;2023-05-20T10:28:44;100293.28;;;22.49;100.00
8286;BME280;4181;43.416;24.598;2023-05-20T10:31:22;100296.28;;;22.61;100.00
8286;BME280;4181;43.416;24.598;2023-05-20T10:33:51;100297.75;;;22.76;100.00
8286;BME280;4181;43.416;24.598;2023-05-20T10:36:28;100282.03;;;22.88;100.00
8286;BME280;4181;43.416;24.598;2023-05-20T10:38:57;100278.41;;;23.05;100.00
8286;BME280;4181;43.416;24.598;2023-05-20T10:41:27;100277.06;;;23.28;100.00
8286;BME280;4181;43.416;24.598;2023-05-20T10:44:19;100261.75;;;23.51;100.00
8286;BME280;4181;43.416;24.598;2023-05-20T10:46:44;100259.69;;;23.68;100.00
8286;BME280;4181;43.416;24.598;2023-05-20T10:49:19;100258.94;;;23.89;100.00
8286;BME280;4181;43.416;24.598;2023-05-20T10:51:45;100253.78;;;24.08;100.00
8286;BME280;4181;43.416;24.598;2023-05-20T10:54:11;100252.91;;;24.36;100.00
8286;BME280;4181;43.416;24.598;2023-05-20T10:56:39;100235.13;;;24.82;100.00
8286;BME280;4181;43.416;24.598;2023-05-20T10:59:05;100228.66;;;24.90;100.00
8286;BME280;4181;43.416;24.598;2023-05-20T11:01:31;100229.19;;;25.16;100.00
8286;BME280;4181;43.416;24.598;2023-05-20T11:03:57;100236.06;;;25.19;100.00
8286;BME280;4181;43.416;24.598;2023-05-20T11:06:26;100242.28;;;24.91;100.00
8286;BME280;4181;43.416;24.598;2023-05-20T11:08:53;100245.91;;;25.04;100.00
8286;BME280;4181;43.416;24.598;2023-05-20T11:11:18;100256.81;;;24.97;100.00
8286;BME280;4181;43.416;24.598;2023-05-20T11:13:44;100249.19;;;25.06;100.00
8286;BME280;4181;43.416;24.598;2023-05-20T11:16:10;100247.00;;;25.12;100.00
8286;BME280;4181;43.416;24.598;2023-05-20T11:18:35;100249.66;;;25.08;100.00
8286;BME280;4181;43.416;24.598;2023-05-20T11:21:01;100255.19;;;24.96;100.00
8286;BME280;4181;43.416;24.598;2023-05-20T11:23:27;100256.94;;;24.88;100.00
8286;BME280;4181;43.416;24.598;2023-05-20T11:25:54;100249.63;;;24.96;100.00
8286;BME280;4181;43.416;24.598;2023-05-20T11:28:21;100246.19;;;25.11;100.00
8286;BME280;4181;43.416;24.598;2023-05-20T11:30:48;100246.88;;;25.08;100.00
8286;BME280;4181;43.416;24.598;2023-05-20T11:33:15;100257.59;;;24.65;100.00
8286;BME280;4181;43.416;24.598;2023-05-20T11:35:49;100253.75;;;24.78;100.00
8286;BME280;4181;43.416;24.598;2023-05-20T11:38:15;100258.28;;;24.62;100.00
8286;BME280;4181;43.416;24.598;2023-05-20T11:40:45;100250.69;;;24.71;100.00
8286;BME280;4181;43.416;24.598;2023-05-20T11:43:12;100244.41;;;24.74;100.00
8286;BME280;4181;43.416;24.598;2023-05-20T11:45:39;100229.59;;;24.94;100.00
8286;BME280;4181;43.416;24.598;2023-05-20T11:48:05;100231.25;;;25.07;100.00
8286;BME280;4181;43.416;24.598;2023-05-20T11:50:38;100214.38;;;25.36;100.00
8286;BME280;4181;43.416;24.598;2023-05-20T11:53:09;100206.00;;;25.72;100.00
8286;BME280;4181;43.416;24.598;2023-05-20T11:55:55;100199.69;;;25.87;100.00
8286;BME280;4181;43.416;24.598;2023-05-20T11:58:25;100202.38;;;26.08;100.00
8286;BME280;4181;43.416;24.598;2023-05-20T12:00:51;100219.97;;;25.84;100.00
8286;BME280;4181;43.416;24.598;2023-05-20T12:03:17;100217.06;;;25.69;100.00
8286;BME280;4181;43.416;24.598;2023-05-20T12:05:43;100221.84;;;25.68;100.00
8286;BME280;4181;43.416;24.598;2023-05-20T12:08:09;100217.63;;;25.62;100.00
8286;BME280;4181;43.416;24.598;2023-05-20T12:10:34;100195.50;;;25.69;100.00
8286;BME280;4181;43.416;24.598;2023-05-20T12:13:02;100197.94;;;25.95;100.00
8286;BME280;4181;43.416;24.598;2023-05-20T12:15:28;100186.72;;;26.19;100.00
8286;BME280;4181;43.416;24.598;2023-05-20T12:17:54;100180.50;;;26.38;100.00
8286;BME280;4181;43.416;24.598;2023-05-20T12:20:22;100179.97;;;26.48;100.00
8286;BME280;4181;43.416;24.598;2023-05-20T12:22:48;100179.09;;;26.44;100.00
8286;BME280;4181;43.416;24.598;2023-05-20T12:25:15;100179.34;;;26.39;100.00
8286;BME280;4181;43.416;24.598;2023-05-20T12:27:42;100171.59;;;26.48;100.00
8286;BME280;4181;43.416;24.598;2023-05-20T12:30:08;100178.59;;;26.54;100.00
8286;BME280;4181;43.416;24.598;2023-05-20T12:32:37;100159.75;;;26.66;100.00
8286;BME280;4181;43.416;24.598;2023-05-20T12:35:03;100158.00;;;26.74;100.00
8286;BME280;4181;43.416;24.598;2023-05-20T12:37:29;100154.72;;;26.72;100.00
8286;BME280;4181;43.416;24.598;2023-05-20T12:39:54;100137.22;;;26.75;100.00
8286;BME280;4181;43.416;24.598;2023-05-20T12:42:20;100136.19;;;26.67;100.00
8286;BME280;4181;43.416;24.598;2023-05-20T12:44:45;100118.00;;;26.61;100.00
8286;BME280;4181;43.416;24.598;2023-05-20T12:47:11;100104.53;;;26.79;100.00
8286;BME280;4181;43.416;24.598;2023-05-20T12:49:36;100103.53;;;26.87;100.00
8286;BME280;4181;43.416;24.598;2023-05-20T12:52:02;100113.75;;;26.95;100.00
8286;BME280;4181;43.416;24.598;2023-05-20T12:54:27;100114.66;;;26.83;100.00
8286;BME280;4181;43.416;24.598;2023-05-20T12:56:57;100115.31;;;26.37;100.00